createdAt,value
2017-10-25T00:00:18.362Z,0
2017-10-25T00:01:19.757Z,0
2017-10-25T00:02:21.158Z,0
2017-10-25T00:03:22.553Z,0
2017-10-25T00:04:23.950Z,0
2017-10-25T00:05:25.351Z,0
2017-10-25T00:06:26.751Z,0
2017-10-25T00:07:28.150Z,0
2017-10-25T00:08:29.551Z,0
2017-10-25T00:09:30.952Z,0
2017-10-25T00:10:32.350Z,0
2017-10-25T00:11:33.898Z,0
2017-10-25T00:12:35.434Z,0
2017-10-25T00:13:36.894Z,0
2017-10-25T00:14:38.296Z,0
2017-10-25T00:15:39.699Z,0
2017-10-25T00:16:41.101Z,0
2017-10-25T00:17:42.500Z,0
2017-10-25T00:18:43.902Z,0
2017-10-25T00:19:45.297Z,0
2017-10-25T00:20:46.698Z,0
2017-10-25T00:21:48.092Z,0
2017-10-25T00:22:49.493Z,0
2017-10-25T00:23:50.896Z,0
2017-10-25T00:24:52.291Z,0
2017-10-25T00:25:53.689Z,0
2017-10-25T00:26:55.091Z,0
2017-10-25T00:27:56.491Z,0
2017-10-25T00:28:57.890Z,0
2017-10-25T00:29:59.290Z,0
2017-10-25T00:31:00.697Z,0
2017-10-25T00:32:02.096Z,0
2017-10-25T00:33:03.493Z,0
2017-10-25T00:34:04.897Z,0
2017-10-25T00:35:06.296Z,0
2017-10-25T00:36:07.696Z,0
2017-10-25T00:37:09.097Z,0
2017-10-25T00:38:10.501Z,0
2017-10-25T00:39:11.897Z,0
2017-10-25T00:40:13.300Z,0
2017-10-25T00:41:14.698Z,0
2017-10-25T00:42:16.098Z,0
2017-10-25T00:43:17.495Z,0
2017-10-25T00:44:18.896Z,0
2017-10-25T00:45:20.296Z,0
2017-10-25T00:46:21.695Z,0
2017-10-25T00:47:23.096Z,0
2017-10-25T00:48:24.495Z,0
2017-10-25T00:49:25.893Z,0
2017-10-25T00:50:27.294Z,0
2017-10-25T00:51:28.695Z,0
2017-10-25T00:52:30.099Z,0
2017-10-25T00:53:31.499Z,0
2017-10-25T00:54:32.895Z,0
2017-10-25T00:55:34.305Z,0
2017-10-25T00:56:35.693Z,0
2017-10-25T00:57:37.093Z,0
2017-10-25T00:58:38.499Z,0
2017-10-25T00:59:39.903Z,0
2017-10-25T01:00:41.301Z,0
2017-10-25T01:01:42.694Z,0
2017-10-25T01:02:44.094Z,0
2017-10-25T01:03:45.497Z,0
2017-10-25T01:04:46.895Z,0
2017-10-25T01:05:48.294Z,0
2017-10-25T01:06:49.698Z,0
2017-10-25T01:07:51.099Z,0
2017-10-25T01:08:52.496Z,0
2017-10-25T01:09:53.895Z,0
2017-10-25T01:10:55.293Z,0
2017-10-25T01:11:56.695Z,0
2017-10-25T01:12:58.097Z,0
2017-10-25T01:13:59.505Z,0
2017-10-25T01:15:00.909Z,0
2017-10-25T01:16:02.303Z,0
2017-10-25T01:17:03.704Z,0
2017-10-25T01:18:05.100Z,0
2017-10-25T01:19:06.501Z,0
2017-10-25T01:20:07.950Z,0
2017-10-25T01:21:09.352Z,0
2017-10-25T01:22:10.749Z,0
2017-10-25T01:23:12.148Z,0
2017-10-25T01:24:13.547Z,0
2017-10-25T01:25:14.950Z,0
2017-10-25T01:26:16.355Z,0
2017-10-25T01:27:17.792Z,0
2017-10-25T01:28:19.194Z,0
2017-10-25T01:29:20.591Z,0
2017-10-25T01:30:21.988Z,0
2017-10-25T01:31:23.387Z,0
2017-10-25T01:32:24.787Z,0
2017-10-25T01:33:26.190Z,0
2017-10-25T01:34:27.590Z,0
2017-10-25T01:35:28.990Z,0
2017-10-25T01:36:30.388Z,0
2017-10-25T01:37:31.787Z,0
2017-10-25T01:38:33.191Z,0
2017-10-25T01:39:34.589Z,0
2017-10-25T01:40:35.988Z,0
2017-10-25T01:41:37.388Z,0
2017-10-25T01:42:38.788Z,0
2017-10-25T01:43:40.187Z,0
2017-10-25T01:44:41.584Z,0
2017-10-25T01:45:42.984Z,0
2017-10-25T01:46:44.388Z,0
2017-10-25T01:47:45.787Z,0
2017-10-25T01:48:47.186Z,0
2017-10-25T01:49:48.588Z,0
2017-10-25T01:50:49.986Z,0
2017-10-25T01:51:51.383Z,0
2017-10-25T01:52:52.785Z,0
2017-10-25T01:53:54.183Z,0
2017-10-25T01:54:55.580Z,0
2017-10-25T01:55:56.981Z,0
2017-10-25T01:56:58.378Z,0
2017-10-25T01:57:59.778Z,0
2017-10-25T01:59:01.188Z,0
2017-10-25T02:00:02.577Z,0
2017-10-25T02:01:03.977Z,0
2017-10-25T02:02:05.376Z,0
2017-10-25T02:03:06.777Z,0
2017-10-25T02:04:08.179Z,0
2017-10-25T02:05:09.577Z,0
2017-10-25T02:06:10.977Z,0
2017-10-25T02:07:12.374Z,0
2017-10-25T02:08:13.773Z,0
2017-10-25T02:09:15.175Z,0
2017-10-25T02:10:16.576Z,0
2017-10-25T02:11:17.976Z,0
2017-10-25T02:12:19.371Z,0
2017-10-25T02:13:20.773Z,0
2017-10-25T02:14:22.172Z,0
2017-10-25T02:15:23.571Z,0
2017-10-25T02:16:24.974Z,0
2017-10-25T02:17:26.379Z,0
2017-10-25T02:18:27.782Z,0
2017-10-25T02:19:29.180Z,0
2017-10-25T02:20:30.578Z,0
2017-10-25T02:21:31.975Z,0
2017-10-25T02:22:33.375Z,0
2017-10-25T02:23:34.779Z,0
2017-10-25T02:24:36.177Z,0
2017-10-25T02:25:37.583Z,0
2017-10-25T02:26:38.980Z,0
2017-10-25T02:27:40.382Z,0
2017-10-25T02:28:41.780Z,0
2017-10-25T02:29:43.184Z,0
2017-10-25T02:30:44.584Z,0
2017-10-25T02:31:45.983Z,0
2017-10-25T02:32:47.386Z,0
2017-10-25T02:33:48.783Z,0
2017-10-25T02:34:50.185Z,0
2017-10-25T02:35:51.581Z,0
2017-10-25T02:36:52.980Z,0
2017-10-25T02:37:54.383Z,0
2017-10-25T02:38:55.782Z,0
2017-10-25T02:39:57.184Z,0
2017-10-25T02:40:58.589Z,0
2017-10-25T02:41:59.983Z,0
2017-10-25T02:43:01.379Z,0
2017-10-25T02:44:02.781Z,0
2017-10-25T02:45:04.184Z,0
2017-10-25T02:46:05.578Z,0
2017-10-25T02:47:06.982Z,0
2017-10-25T02:48:08.379Z,0
2017-10-25T02:49:09.777Z,0
2017-10-25T02:50:11.174Z,0
2017-10-25T02:51:12.573Z,0
2017-10-25T02:52:13.974Z,0
2017-10-25T02:53:15.374Z,0
2017-10-25T02:54:16.772Z,0
2017-10-25T02:55:18.174Z,0
2017-10-25T02:56:19.575Z,0
2017-10-25T02:57:20.975Z,0
2017-10-25T02:58:22.379Z,0
2017-10-25T02:59:23.826Z,0
2017-10-25T03:00:25.226Z,0
2017-10-25T03:01:26.624Z,0
2017-10-25T03:02:28.025Z,0
2017-10-25T03:03:29.425Z,0
2017-10-25T03:04:30.824Z,0
2017-10-25T03:05:32.226Z,0
2017-10-25T03:06:33.624Z,0
2017-10-25T03:07:35.025Z,0
2017-10-25T03:08:36.426Z,0
2017-10-25T03:09:37.823Z,0
2017-10-25T03:10:39.222Z,0
2017-10-25T03:11:40.623Z,0
2017-10-25T03:12:42.021Z,0
2017-10-25T03:13:43.427Z,0
2017-10-25T03:14:44.827Z,0
2017-10-25T03:15:46.230Z,0
2017-10-25T03:16:47.628Z,0
2017-10-25T03:17:49.027Z,0
2017-10-25T03:18:50.422Z,0
2017-10-25T03:19:51.826Z,0
2017-10-25T03:20:53.225Z,0
2017-10-25T03:21:54.623Z,0
2017-10-25T03:22:56.025Z,0
2017-10-25T03:23:57.425Z,0
2017-10-25T03:24:58.823Z,0
2017-10-25T03:26:00.223Z,0
2017-10-25T03:27:01.629Z,0
2017-10-25T03:28:03.021Z,0
2017-10-25T03:29:04.425Z,0
2017-10-25T03:30:05.826Z,0
2017-10-25T03:31:07.237Z,0
2017-10-25T03:32:08.622Z,0
2017-10-25T03:33:10.020Z,0
2017-10-25T03:34:11.419Z,0
2017-10-25T03:35:12.819Z,0
2017-10-25T03:36:14.221Z,0
2017-10-25T03:37:15.624Z,0
2017-10-25T03:38:17.020Z,0
2017-10-25T03:39:18.421Z,0
2017-10-25T03:40:19.821Z,0
2017-10-25T03:41:21.218Z,0
2017-10-25T03:42:22.619Z,0
2017-10-25T03:43:24.019Z,0
2017-10-25T03:44:25.420Z,0
2017-10-25T03:45:26.817Z,0
2017-10-25T03:46:28.216Z,0
2017-10-25T03:47:29.623Z,0
2017-10-25T03:48:31.027Z,0
2017-10-25T03:49:32.434Z,0
2017-10-25T03:50:33.836Z,0
2017-10-25T03:51:35.236Z,0
2017-10-25T03:52:36.636Z,0
2017-10-25T03:53:38.036Z,0
2017-10-25T03:54:39.435Z,0
2017-10-25T03:55:40.839Z,0
2017-10-25T03:56:42.242Z,0
2017-10-25T03:57:43.641Z,0
2017-10-25T03:58:45.040Z,0
2017-10-25T03:59:46.436Z,0
2017-10-25T04:00:47.838Z,0
2017-10-25T04:01:49.239Z,0
2017-10-25T04:02:50.644Z,0
2017-10-25T04:03:52.043Z,0
2017-10-25T04:04:53.443Z,0
2017-10-25T04:05:54.843Z,0
2017-10-25T04:06:56.241Z,0
2017-10-25T04:07:57.641Z,0
2017-10-25T04:08:59.041Z,0
2017-10-25T04:10:00.437Z,0
2017-10-25T04:11:01.837Z,0
2017-10-25T04:12:03.243Z,0
2017-10-25T04:13:04.639Z,0
2017-10-25T04:14:06.039Z,0
2017-10-25T04:15:07.435Z,0
2017-10-25T04:16:08.836Z,0
2017-10-25T04:17:10.236Z,0
2017-10-25T04:18:11.636Z,0
2017-10-25T04:19:13.035Z,0
2017-10-25T04:20:14.436Z,0
2017-10-25T04:21:15.834Z,0
2017-10-25T04:22:17.235Z,0
2017-10-25T04:23:18.630Z,0
2017-10-25T04:24:20.030Z,0
2017-10-25T04:25:21.431Z,0
2017-10-25T04:26:22.832Z,0
2017-10-25T04:27:24.234Z,0
2017-10-25T04:28:25.631Z,0
2017-10-25T04:29:27.031Z,0
2017-10-25T04:30:28.434Z,0
2017-10-25T04:31:29.833Z,0
2017-10-25T04:32:31.233Z,0
2017-10-25T04:33:32.641Z,0
2017-10-25T04:34:34.038Z,0
2017-10-25T04:35:35.433Z,0
2017-10-25T04:36:36.834Z,0
2017-10-25T04:37:38.230Z,0
2017-10-25T04:38:39.672Z,0
2017-10-25T04:39:41.073Z,0
2017-10-25T04:40:42.660Z,0
2017-10-25T04:41:44.059Z,0
2017-10-25T04:42:45.462Z,0
2017-10-25T04:43:46.863Z,0
2017-10-25T04:44:48.263Z,0
2017-10-25T04:45:49.662Z,0
2017-10-25T04:46:51.067Z,0
2017-10-25T04:47:52.585Z,0
2017-10-25T04:48:53.999Z,0
2017-10-25T04:49:55.390Z,0
2017-10-25T04:50:56.786Z,0
2017-10-25T04:51:58.185Z,0
2017-10-25T04:52:59.590Z,0
2017-10-25T04:54:00.986Z,0
2017-10-25T04:55:02.395Z,0
2017-10-25T04:56:03.791Z,0
2017-10-25T04:57:05.192Z,0
2017-10-25T04:58:06.597Z,0
2017-10-25T04:59:07.992Z,0
2017-10-25T05:00:09.392Z,0
2017-10-25T05:01:10.791Z,0
2017-10-25T05:02:12.191Z,0
2017-10-25T05:03:13.592Z,0
2017-10-25T05:04:14.991Z,0
2017-10-25T05:05:16.384Z,0
2017-10-25T05:06:17.782Z,0
2017-10-25T05:07:19.182Z,0
2017-10-25T05:08:20.591Z,0
2017-10-25T05:09:21.992Z,0
2017-10-25T05:10:23.391Z,0
2017-10-25T05:11:24.799Z,0
2017-10-25T05:12:26.210Z,0
2017-10-25T05:13:27.604Z,0
2017-10-25T05:14:29.000Z,0
2017-10-25T05:15:30.404Z,0
2017-10-25T05:16:31.804Z,0
2017-10-25T05:17:33.208Z,0
2017-10-25T05:18:34.606Z,0
2017-10-25T05:19:36.002Z,0
2017-10-25T05:20:37.400Z,0
2017-10-25T05:21:38.801Z,0
2017-10-25T05:22:40.200Z,0
2017-10-25T05:23:41.600Z,0
2017-10-25T05:24:43.004Z,0
2017-10-25T05:25:44.401Z,0
2017-10-25T05:26:45.799Z,0
2017-10-25T05:27:47.391Z,0
2017-10-25T05:28:48.795Z,0
2017-10-25T05:29:50.193Z,0
2017-10-25T05:30:51.595Z,0
2017-10-25T05:31:52.997Z,0
2017-10-25T05:32:54.394Z,0
2017-10-25T05:33:55.795Z,0
2017-10-25T05:34:57.193Z,0
2017-10-25T05:35:58.594Z,0
2017-10-25T05:36:59.996Z,0
2017-10-25T05:38:01.396Z,0
2017-10-25T05:39:03.149Z,0
2017-10-25T05:40:04.543Z,0
2017-10-25T05:41:05.941Z,0
2017-10-25T05:42:08.468Z,0
2017-10-25T05:43:09.751Z,0
2017-10-25T05:44:11.149Z,0
2017-10-25T05:45:12.550Z,0
2017-10-25T05:46:13.948Z,0
2017-10-25T05:47:15.346Z,0
2017-10-25T05:48:16.747Z,0
2017-10-25T05:49:18.144Z,4
2017-10-25T05:50:19.547Z,4
2017-10-25T05:51:20.949Z,4
2017-10-25T05:52:22.354Z,0
2017-10-25T05:53:23.750Z,4
2017-10-25T05:54:25.150Z,4
2017-10-25T05:55:26.556Z,4
2017-10-25T05:56:27.954Z,4
2017-10-25T05:57:29.353Z,4
2017-10-25T05:58:30.754Z,8
2017-10-25T05:59:32.154Z,8
2017-10-25T06:00:33.561Z,8
2017-10-25T06:01:34.959Z,12
2017-10-25T06:02:36.359Z,12
2017-10-25T06:03:37.758Z,12
2017-10-25T06:04:39.159Z,16
2017-10-25T06:05:40.563Z,16
2017-10-25T06:06:41.963Z,20
2017-10-25T06:07:43.369Z,24
2017-10-25T06:08:44.764Z,28
2017-10-25T06:09:46.159Z,32
2017-10-25T06:10:47.561Z,36
2017-10-25T06:11:48.965Z,40
2017-10-25T06:12:50.367Z,40
2017-10-25T06:13:51.800Z,48
2017-10-25T06:14:53.207Z,52
2017-10-25T06:15:54.607Z,52
2017-10-25T06:16:56.005Z,60
2017-10-25T06:17:57.403Z,64
2017-10-25T06:18:58.805Z,72
2017-10-25T06:20:00.214Z,80
2017-10-25T06:21:01.610Z,88
2017-10-25T06:22:03.012Z,96
2017-10-25T06:23:04.408Z,100
2017-10-25T06:24:05.809Z,108
2017-10-25T06:25:07.209Z,116
2017-10-25T06:26:08.610Z,124
2017-10-25T06:27:10.012Z,132
2017-10-25T06:28:11.413Z,140
2017-10-25T06:29:12.814Z,152
2017-10-25T06:30:14.209Z,156
2017-10-25T06:31:15.611Z,168
2017-10-25T06:32:17.011Z,176
2017-10-25T06:33:18.420Z,184
2017-10-25T06:34:19.818Z,196
2017-10-25T06:35:21.221Z,204
2017-10-25T06:36:22.627Z,216
2017-10-25T06:37:24.024Z,224
2017-10-25T06:38:25.424Z,236
2017-10-25T06:39:26.822Z,248
2017-10-25T06:40:28.224Z,256
2017-10-25T06:41:29.627Z,272
2017-10-25T06:42:31.039Z,280
2017-10-25T06:43:32.437Z,296
2017-10-25T06:44:33.837Z,312
2017-10-25T06:45:35.253Z,328
2017-10-25T06:46:36.638Z,344
2017-10-25T06:47:38.041Z,364
2017-10-25T06:48:39.451Z,380
2017-10-25T06:49:40.846Z,400
2017-10-25T06:50:42.253Z,420
2017-10-25T06:51:43.655Z,444
2017-10-25T06:52:45.056Z,468
2017-10-25T06:53:46.460Z,496
2017-10-25T06:54:47.859Z,528
2017-10-25T06:57:58.644Z,628
2017-10-25T06:59:00.117Z,664
2017-10-25T07:00:01.508Z,700
2017-10-25T07:01:02.898Z,728
2017-10-25T07:02:04.293Z,772
2017-10-25T07:03:05.688Z,808
2017-10-25T07:04:07.094Z,836
2017-10-25T07:05:08.491Z,856
2017-10-25T07:06:09.884Z,872
2017-10-25T07:07:11.280Z,884
2017-10-25T07:08:12.670Z,876
2017-10-25T07:09:54.578Z,852
2017-10-25T07:10:55.959Z,860
2017-10-25T07:12:17.460Z,880
2017-10-25T07:13:18.852Z,900
2017-10-25T07:14:40.388Z,912
2017-10-25T07:15:41.780Z,940
2017-10-25T07:17:03.285Z,968
2017-10-25T07:18:04.671Z,1016
2017-10-25T07:19:26.202Z,1076
2017-10-25T07:20:27.596Z,1108
2017-10-25T07:21:50.087Z,1096
2017-10-25T07:22:51.480Z,1064
2017-10-25T07:24:13.006Z,1036
2017-10-25T07:25:14.396Z,1028
2017-10-25T07:26:36.883Z,1032
2017-10-25T07:27:38.278Z,1060
2017-10-25T07:29:00.768Z,1100
2017-10-25T07:30:02.211Z,1176
2017-10-25T07:31:24.733Z,1268
2017-10-25T07:32:26.136Z,1348
2017-10-25T07:33:47.639Z,1484
2017-10-25T07:34:49.039Z,1564
2017-10-25T07:36:10.562Z,1660
2017-10-25T07:37:11.953Z,1608
2017-10-25T07:38:33.458Z,1608
2017-10-25T07:39:34.852Z,1636
2017-10-25T07:40:56.499Z,1684
2017-10-25T07:41:57.889Z,1720
2017-10-25T07:43:19.387Z,1832
2017-10-25T07:44:20.778Z,1944
2017-10-25T07:45:42.321Z,2044
2017-10-25T07:46:43.714Z,2116
2017-10-25T07:48:06.206Z,2156
2017-10-25T07:49:07.599Z,2196
2017-10-25T07:50:30.096Z,2228
2017-10-25T07:51:31.490Z,2252
2017-10-25T07:52:53.014Z,2248
2017-10-25T07:53:54.408Z,2176
2017-10-25T07:55:16.907Z,2076
2017-10-25T07:56:18.304Z,2068
2017-10-25T07:57:19.699Z,2084
2017-10-25T07:58:21.113Z,2104
2017-10-25T07:59:22.507Z,2092
2017-10-25T08:00:23.905Z,2344
2017-10-25T08:01:25.308Z,2192
2017-10-25T08:02:26.696Z,1948
2017-10-25T08:03:28.096Z,1824
2017-10-25T08:04:29.489Z,1832
2017-10-25T08:05:30.883Z,1836
2017-10-25T08:06:32.281Z,1872
2017-10-25T08:07:33.674Z,1928
2017-10-25T08:08:35.069Z,1948
2017-10-25T08:09:36.466Z,2072
2017-10-25T08:10:37.858Z,2032
2017-10-25T08:11:39.253Z,2060
2017-10-25T08:12:40.648Z,2136
2017-10-25T08:13:42.041Z,2236
2017-10-25T08:14:43.436Z,2204
2017-10-25T08:15:44.832Z,2240
2017-10-25T08:16:46.230Z,2300
2017-10-25T08:17:47.628Z,2412
2017-10-25T08:18:49.025Z,2512
2017-10-25T08:19:50.423Z,2616
2017-10-25T08:20:51.819Z,2920
2017-10-25T08:21:53.214Z,3116
2017-10-25T08:22:54.615Z,3292
2017-10-25T08:23:56.012Z,3296
2017-10-25T08:24:57.407Z,3116
2017-10-25T08:25:58.802Z,3284
2017-10-25T08:27:00.198Z,3328
2017-10-25T08:28:01.597Z,3368
2017-10-25T08:29:02.995Z,3460
2017-10-25T08:30:04.396Z,3600
2017-10-25T08:31:05.799Z,3764
2017-10-25T08:32:07.190Z,3860
2017-10-25T08:33:08.584Z,3724
2017-10-25T08:34:09.975Z,3736
2017-10-25T08:35:11.376Z,3908
2017-10-25T08:36:12.814Z,4192
2017-10-25T08:37:14.172Z,4168
2017-10-25T08:38:15.570Z,4244
2017-10-25T08:39:16.963Z,4120
2017-10-25T08:40:18.363Z,4168
2017-10-25T08:41:19.756Z,4356
2017-10-25T08:42:21.153Z,4344
2017-10-25T08:43:22.553Z,4420
2017-10-25T08:44:23.948Z,4440
2017-10-25T08:45:25.346Z,4604
2017-10-25T08:46:26.738Z,4784
2017-10-25T08:47:28.136Z,5036
2017-10-25T08:48:29.546Z,5000
2017-10-25T08:49:30.925Z,4668
2017-10-25T08:50:32.323Z,5004
2017-10-25T08:51:33.724Z,5336
2017-10-25T08:52:35.118Z,4644
2017-10-25T08:53:36.512Z,5844
2017-10-25T08:54:37.912Z,5764
2017-10-25T08:55:39.306Z,6084
2017-10-25T08:56:40.705Z,6380
2017-10-25T08:57:42.103Z,5876
2017-10-25T08:58:43.503Z,5504
2017-10-25T08:59:44.906Z,5304
2017-10-25T09:00:46.295Z,4996
2017-10-25T09:01:47.691Z,5072
2017-10-25T09:02:49.087Z,4892
2017-10-25T09:03:50.481Z,4780
2017-10-25T09:04:51.877Z,4568
2017-10-25T09:05:53.276Z,3936
2017-10-25T09:06:54.675Z,3664
2017-10-25T09:07:56.070Z,3528
2017-10-25T09:08:57.466Z,3032
2017-10-25T09:09:58.863Z,2892
2017-10-25T09:11:00.263Z,2856
2017-10-25T09:12:01.656Z,2848
2017-10-25T09:13:03.053Z,2868
2017-10-25T09:14:04.453Z,2588
2017-10-25T09:15:05.847Z,2840
2017-10-25T09:16:07.242Z,3032
2017-10-25T09:17:08.651Z,3380
2017-10-25T09:18:10.039Z,3532
2017-10-25T09:19:11.434Z,3936
2017-10-25T09:20:12.836Z,4204
2017-10-25T09:21:14.267Z,4828
2017-10-25T09:22:15.660Z,5664
2017-10-25T09:23:17.053Z,7652
2017-10-25T09:24:18.451Z,7888
2017-10-25T09:25:19.848Z,7612
2017-10-25T09:26:21.246Z,10424
2017-10-25T09:27:22.645Z,10740
2017-10-25T09:28:24.046Z,10024
2017-10-25T09:29:25.446Z,13968
2017-10-25T09:30:26.843Z,16096
2017-10-25T09:31:28.240Z,4492
2017-10-25T09:32:29.636Z,9432
2017-10-25T09:33:31.036Z,12900
2017-10-25T09:34:32.436Z,5812
2017-10-25T09:35:33.837Z,6060
2017-10-25T09:36:35.231Z,8128
2017-10-25T09:37:36.628Z,5880
2017-10-25T09:38:38.027Z,14628
2017-10-25T09:39:39.416Z,12648
2017-10-25T09:40:40.818Z,5432
2017-10-25T09:41:42.220Z,3296
2017-10-25T09:42:43.614Z,4036
2017-10-25T09:43:45.007Z,4168
2017-10-25T09:44:46.406Z,7080
2017-10-25T09:45:47.805Z,14952
2017-10-25T09:46:49.199Z,18368
2017-10-25T09:47:50.594Z,14348
2017-10-25T09:48:51.999Z,10176
2017-10-25T09:49:53.401Z,28064
2017-10-25T09:50:54.794Z,7424
2017-10-25T09:51:56.193Z,30688
2017-10-25T09:52:57.597Z,31232
2017-10-25T09:53:58.997Z,27008
2017-10-25T09:55:00.398Z,30912
2017-10-25T09:56:01.797Z,9712
2017-10-25T09:57:03.196Z,19072
2017-10-25T09:58:04.597Z,26368
2017-10-25T09:59:05.995Z,21152
2017-10-25T10:00:07.389Z,25056
2017-10-25T10:01:08.790Z,6848
2017-10-25T10:02:10.194Z,27392
2017-10-25T10:03:11.597Z,21664
2017-10-25T10:04:13.000Z,22016
2017-10-25T10:05:14.393Z,7312
2017-10-25T10:06:15.792Z,31360
2017-10-25T10:07:17.189Z,23808
2017-10-25T10:08:18.588Z,22784
2017-10-25T10:09:19.986Z,7812
2017-10-25T10:10:21.384Z,33024
2017-10-25T10:11:22.787Z,30528
2017-10-25T10:12:24.183Z,24448
2017-10-25T10:13:25.618Z,31840
2017-10-25T10:14:27.016Z,29568
2017-10-25T10:15:28.418Z,23776
2017-10-25T10:16:29.817Z,11208
2017-10-25T10:17:31.223Z,40320
2017-10-25T10:18:32.627Z,41024
2017-10-25T10:19:34.029Z,38144
2017-10-25T10:20:35.427Z,38272
2017-10-25T10:21:36.828Z,38752
2017-10-25T10:22:38.237Z,43552
2017-10-25T10:23:39.637Z,48640
2017-10-25T10:24:41.039Z,40224
2017-10-25T10:25:42.450Z,55552
2017-10-25T10:26:43.848Z,57088
2017-10-25T10:27:45.248Z,53376
2017-10-25T10:28:46.649Z,54368
2017-10-25T10:29:48.057Z,52896
2017-10-25T10:30:49.456Z,51232
2017-10-25T10:31:50.860Z,48512
2017-10-25T10:32:52.261Z,48512
2017-10-25T10:33:53.662Z,43424
2017-10-25T10:34:55.065Z,51552
2017-10-25T10:35:56.467Z,55712
2017-10-25T10:36:57.868Z,38112
2017-10-25T10:37:59.266Z,59200
2017-10-25T10:39:00.670Z,7536
2017-10-25T10:40:02.089Z,52192
2017-10-25T10:41:03.481Z,54208
2017-10-25T10:42:04.883Z,49120
2017-10-25T10:43:06.286Z,15088
2017-10-25T10:44:07.686Z,7852
2017-10-25T10:45:09.085Z,6140
2017-10-25T10:46:10.490Z,38752
2017-10-25T10:47:11.896Z,27392
2017-10-25T10:48:13.300Z,7328
2017-10-25T10:49:14.707Z,15648
2017-10-25T10:50:16.109Z,26720
2017-10-25T10:51:17.513Z,15968
2017-10-25T10:52:18.915Z,4116
2017-10-25T10:53:20.326Z,4164
2017-10-25T10:54:21.723Z,3112
2017-10-25T10:55:23.119Z,3752
2017-10-25T10:56:24.518Z,3260
2017-10-25T10:57:25.919Z,3780
2017-10-25T10:58:27.324Z,3248
2017-10-25T10:59:28.726Z,8208
2017-10-25T11:00:30.133Z,5500
2017-10-25T11:01:31.528Z,3768
2017-10-25T11:02:32.931Z,3240
2017-10-25T11:03:34.330Z,3904
2017-10-25T11:04:35.732Z,4372
2017-10-25T11:05:37.128Z,2248
2017-10-25T11:06:38.532Z,2372
2017-10-25T11:07:39.933Z,2980
2017-10-25T11:08:41.332Z,2812
2017-10-25T11:09:42.729Z,2200
2017-10-25T11:10:44.129Z,2496
2017-10-25T11:11:45.527Z,3080
2017-10-25T11:12:46.926Z,2780
2017-10-25T11:13:48.323Z,2688
2017-10-25T11:14:49.728Z,2856
2017-10-25T11:15:51.122Z,3492
2017-10-25T11:16:52.516Z,3720
2017-10-25T11:17:53.914Z,2844
2017-10-25T11:18:55.313Z,2644
2017-10-25T11:19:56.713Z,2800
2017-10-25T11:20:58.065Z,3012
2017-10-25T11:21:59.468Z,3104
2017-10-25T11:23:00.864Z,2796
2017-10-25T11:24:02.262Z,2948
2017-10-25T11:25:03.658Z,3068
2017-10-25T11:26:05.055Z,3268
2017-10-25T11:27:06.452Z,3584
2017-10-25T11:28:07.850Z,4188
2017-10-25T11:29:09.248Z,5180
2017-10-25T11:30:10.647Z,5952
2017-10-25T11:31:12.044Z,7236
2017-10-25T11:32:13.463Z,7760
2017-10-25T11:33:14.843Z,8912
2017-10-25T11:34:16.238Z,6072
2017-10-25T11:35:17.637Z,4828
2017-10-25T11:36:19.036Z,4224
2017-10-25T11:37:20.435Z,3900
2017-10-25T11:38:21.830Z,3744
2017-10-25T11:39:23.228Z,3680
2017-10-25T11:40:24.625Z,3040
2017-10-25T11:41:26.024Z,2596
2017-10-25T11:42:27.422Z,2488
2017-10-25T11:43:28.821Z,2344
2017-10-25T11:44:30.221Z,2340
2017-10-25T11:45:31.620Z,2288
2017-10-25T11:46:33.014Z,2324
2017-10-25T11:47:34.419Z,2264
2017-10-25T11:48:35.818Z,2156
2017-10-25T11:49:37.222Z,2368
2017-10-25T11:50:38.620Z,2572
2017-10-25T11:51:40.027Z,2400
2017-10-25T11:52:41.448Z,2236
2017-10-25T11:53:42.842Z,2104
2017-10-25T11:54:44.237Z,2212
2017-10-25T11:55:45.633Z,2280
2017-10-25T11:56:47.032Z,2732
2017-10-25T11:57:48.430Z,2660
2017-10-25T11:58:49.836Z,2480
2017-10-25T11:59:51.229Z,2172
2017-10-25T12:00:52.638Z,2100
2017-10-25T12:01:54.033Z,1852
2017-10-25T12:02:55.430Z,1700
2017-10-25T12:03:56.822Z,1608
2017-10-25T12:04:58.219Z,1592
2017-10-25T12:05:59.617Z,1616
2017-10-25T12:07:01.013Z,1860
2017-10-25T12:08:02.408Z,1908
2017-10-25T12:09:03.805Z,1792
2017-10-25T12:10:05.203Z,1740
2017-10-25T12:11:06.601Z,1716
2017-10-25T12:12:07.999Z,1728
2017-10-25T12:13:09.396Z,1708
2017-10-25T12:14:10.790Z,1792
2017-10-25T12:15:12.184Z,1912
2017-10-25T12:16:13.581Z,1880
2017-10-25T12:17:14.975Z,1792
2017-10-25T12:18:16.374Z,1848
2017-10-25T12:19:17.776Z,1640
2017-10-25T12:20:19.173Z,1692
2017-10-25T12:21:20.565Z,2048
2017-10-25T12:22:21.963Z,2408
2017-10-25T12:23:23.358Z,2180
2017-10-25T12:24:24.754Z,2120
2017-10-25T12:25:26.153Z,1824
2017-10-25T12:26:27.553Z,1772
2017-10-25T12:27:28.955Z,1880
2017-10-25T12:28:30.349Z,1752
2017-10-25T12:29:31.745Z,1744
2017-10-25T12:30:33.140Z,1660
2017-10-25T12:31:34.537Z,1580
2017-10-25T12:32:35.934Z,1556
2017-10-25T12:33:37.331Z,1700
2017-10-25T12:34:38.737Z,1700
2017-10-25T12:35:40.124Z,1700
2017-10-25T12:36:41.520Z,1852
2017-10-25T12:37:42.915Z,2112
2017-10-25T12:38:44.314Z,2256
2017-10-25T12:39:45.707Z,2116
2017-10-25T12:40:47.106Z,1988
2017-10-25T12:41:48.509Z,1888
2017-10-25T12:42:49.902Z,1908
2017-10-25T12:43:51.299Z,2180
2017-10-25T12:44:52.692Z,1968
2017-10-25T12:45:54.086Z,1904
2017-10-25T12:46:55.481Z,2032
2017-10-25T12:47:56.880Z,1696
2017-10-25T12:48:58.277Z,1772
2017-10-25T12:49:59.673Z,2384
2017-10-25T12:51:01.076Z,3100
2017-10-25T12:52:02.467Z,3844
2017-10-25T12:53:03.869Z,3908
2017-10-25T12:54:05.265Z,4076
2017-10-25T12:55:06.667Z,4832
2017-10-25T12:56:08.063Z,4704
2017-10-25T12:57:09.462Z,5724
2017-10-25T12:58:10.860Z,8528
2017-10-25T12:59:12.250Z,5984
2017-10-25T13:00:13.651Z,6496
2017-10-25T13:01:15.051Z,8348
2017-10-25T13:02:16.453Z,5720
2017-10-25T13:03:17.853Z,5308
2017-10-25T13:04:19.244Z,5764
2017-10-25T13:05:20.643Z,4780
2017-10-25T13:06:22.041Z,5240
2017-10-25T13:07:23.438Z,4492
2017-10-25T13:08:24.835Z,4032
2017-10-25T13:09:26.233Z,3388
2017-10-25T13:10:27.631Z,3148
2017-10-25T13:11:29.025Z,3124
2017-10-25T13:12:30.427Z,3260
2017-10-25T13:13:31.825Z,2808
2017-10-25T13:14:33.223Z,2680
2017-10-25T13:15:34.623Z,2432
2017-10-25T13:16:36.019Z,2220
2017-10-25T13:17:37.421Z,2156
2017-10-25T13:18:38.813Z,2148
2017-10-25T13:19:40.219Z,1884
2017-10-25T13:20:41.607Z,2176
2017-10-25T13:21:43.005Z,2384
2017-10-25T13:22:44.402Z,1932
2017-10-25T13:23:45.802Z,1628
2017-10-25T13:24:47.200Z,1496
2017-10-25T13:25:48.591Z,1708
2017-10-25T13:26:49.995Z,1872
2017-10-25T13:27:51.380Z,1928
2017-10-25T13:28:52.777Z,1716
2017-10-25T13:29:54.174Z,1388
2017-10-25T13:30:55.565Z,1272
2017-10-25T13:31:56.966Z,1472
2017-10-25T13:32:58.358Z,1760
2017-10-25T13:33:59.754Z,1756
2017-10-25T13:35:01.149Z,1572
2017-10-25T13:36:02.541Z,1496
2017-10-25T13:37:03.935Z,1680
2017-10-25T13:38:05.333Z,1552
2017-10-25T13:39:06.730Z,1404
2017-10-25T13:40:08.123Z,1268
2017-10-25T13:41:09.523Z,1212
2017-10-25T13:42:10.917Z,1136
2017-10-25T13:43:12.326Z,1180
2017-10-25T13:44:13.716Z,1132
2017-10-25T13:45:15.112Z,1036
2017-10-25T13:46:16.509Z,988
2017-10-25T13:47:17.907Z,1064
2017-10-25T13:48:19.297Z,1124
2017-10-25T13:49:20.692Z,1208
2017-10-25T13:50:22.085Z,1652
2017-10-25T13:51:23.485Z,1868
2017-10-25T13:52:24.887Z,2220
2017-10-25T13:53:26.284Z,2860
2017-10-25T13:54:27.679Z,2676
2017-10-25T13:55:29.077Z,2456
2017-10-25T13:56:30.476Z,2620
2017-10-25T13:57:31.873Z,3128
2017-10-25T13:58:33.280Z,2668
2017-10-25T13:59:34.670Z,3524
2017-10-25T14:00:36.078Z,3060
2017-10-25T14:01:37.461Z,2520
2017-10-25T14:02:38.856Z,2368
2017-10-25T14:03:40.252Z,2552
2017-10-25T14:04:41.649Z,2456
2017-10-25T14:05:43.048Z,2180
2017-10-25T14:06:44.444Z,2044
2017-10-25T14:07:45.842Z,1956
2017-10-25T14:08:47.252Z,1876
2017-10-25T14:09:48.630Z,2148
2017-10-25T14:10:50.043Z,2216
2017-10-25T14:11:51.427Z,1884
2017-10-25T14:12:52.824Z,1612
2017-10-25T14:13:54.220Z,1396
2017-10-25T14:14:55.618Z,1268
2017-10-25T14:15:57.013Z,1244
2017-10-25T14:16:58.406Z,1168
2017-10-25T14:17:59.802Z,1144
2017-10-25T14:19:01.204Z,1192
2017-10-25T14:20:02.600Z,1336
2017-10-25T14:21:04.001Z,1612
2017-10-25T14:22:05.393Z,1768
2017-10-25T14:23:06.790Z,1636